sensor_id;sensor_type;location;lat;lon;timestamp;P1;durP1;ratioP1;P2;durP2;ratioP2
71655;SDS011;59497;48.798;8.816;2024-03-23T00:54:57;9.07;;;5.00;;
71655;SDS011;59497;48.798;8.816;2024-03-23T00:57:23;8.73;;;4.60;;
71655;SDS011;59497;48.798;8.816;2024-03-23T00:59:48;7.10;;;4.70;;
71655;SDS011;59497;48.798;8.816;2024-03-23T01:02:13;7.30;;;3.63;;
71655;SDS011;59497;48.798;8.816;2024-03-23T01:04:38;5.17;;;3.20;;
71655;SDS011;59497;48.798;8.816;2024-03-23T01:07:03;4.47;;;2.53;;
71655;SDS011;59497;48.798;8.816;2024-03-23T01:09:29;4.45;;;2.90;;
71655;SDS011;59497;48.798;8.816;2024-03-23T01:11:54;4.93;;;2.00;;
71655;SDS011;59497;48.798;8.816;2024-03-23T01:14:19;4.10;;;2.53;;
71655;SDS011;59497;48.798;8.816;2024-03-23T01:16:44;3.63;;;1.87;;
71655;SDS011;59497;48.798;8.816;2024-03-23T01:19:09;3.70;;;1.90;;
71655;SDS011;59497;48.798;8.816;2024-03-23T01:21:35;2.47;;;1.83;;
71655;SDS011;59497;48.798;8.816;2024-03-23T01:24:00;4.40;;;2.17;;
71655;SDS011;59497;48.798;8.816;2024-03-23T01:26:25;4.20;;;2.10;;
71655;SDS011;59497;48.798;8.816;2024-03-23T01:28:50;2.77;;;2.00;;
71655;SDS011;59497;48.798;8.816;2024-03-23T01:31:15;3.23;;;2.37;;
71655;SDS011;59497;48.798;8.816;2024-03-23T01:33:41;4.03;;;2.17;;
71655;SDS011;59497;48.798;8.816;2024-03-23T01:36:06;2.43;;;1.83;;
71655;SDS011;59497;48.798;8.816;2024-03-23T01:38:31;3.33;;;1.73;;
71655;SDS011;59497;48.798;8.816;2024-03-23T01:40:57;2.23;;;1.97;;
71655;SDS011;59497;48.798;8.816;2024-03-23T01:43:22;3.10;;;1.73;;
71655;SDS011;59497;48.798;8.816;2024-03-23T01:45:47;3.73;;;1.80;;
71655;SDS011;59497;48.798;8.816;2024-03-23T01:48:13;3.30;;;2.00;;
71655;SDS011;59497;48.798;8.816;2024-03-23T01:50:38;2.80;;;1.97;;
71655;SDS011;59497;48.798;8.816;2024-03-23T01:53:04;2.30;;;2.10;;
71655;SDS011;59497;48.798;8.816;2024-03-23T01:55:31;3.47;;;1.90;;
71655;SDS011;59497;48.798;8.816;2024-03-23T01:57:56;3.15;;;1.90;;
71655;SDS011;59497;48.798;8.816;2024-03-23T02:00:22;2.20;;;1.70;;
71655;SDS011;59497;48.798;8.816;2024-03-23T02:02:48;4.05;;;1.67;;
71655;SDS011;59497;48.798;8.816;2024-03-23T02:05:13;2.63;;;1.90;;
71655;SDS011;59497;48.798;8.816;2024-03-23T02:07:39;4.40;;;2.60;;
71655;SDS011;59497;48.798;8.816;2024-03-23T02:10:05;2.80;;;1.77;;
71655;SDS011;59497;48.798;8.816;2024-03-23T02:12:31;3.25;;;1.95;;
71655;SDS011;59497;48.798;8.816;2024-03-23T02:14:56;2.70;;;2.00;;
71655;SDS011;59497;48.798;8.816;2024-03-23T02:17:21;3.23;;;2.10;;
71655;SDS011;59497;48.798;8.816;2024-03-23T02:19:46;3.10;;;2.03;;
71655;SDS011;59497;48.798;8.816;2024-03-23T02:22:12;3.23;;;1.90;;
71655;SDS011;59497;48.798;8.816;2024-03-23T02:24:37;3.43;;;1.93;;
71655;SDS011;59497;48.798;8.816;2024-03-23T02:27:02;2.53;;;1.70;;
71655;SDS011;59497;48.798;8.816;2024-03-23T02:29:28;2.53;;;1.97;;
71655;SDS011;59497;48.798;8.816;2024-03-23T02:31:53;2.33;;;2.10;;
71655;SDS011;59497;48.798;8.816;2024-03-23T02:34:18;2.60;;;1.47;;
71655;SDS011;59497;48.798;8.816;2024-03-23T02:36:43;4.77;;;2.23;;
71655;SDS011;59497;48.798;8.816;2024-03-23T02:39:09;3.77;;;1.90;;
71655;SDS011;59497;48.798;8.816;2024-03-23T02:41:34;2.10;;;2.00;;
71655;SDS011;59497;48.798;8.816;2024-03-23T02:43:59;2.40;;;1.90;;
71655;SDS011;59497;48.798;8.816;2024-03-23T02:46:24;4.70;;;2.10;;
71655;SDS011;59497;48.798;8.816;2024-03-23T02:48:49;3.45;;;2.15;;
71655;SDS011;59497;48.798;8.816;2024-03-23T02:51:15;2.33;;;2.13;;
71655;SDS011;59497;48.798;8.816;2024-03-23T02:53:40;2.70;;;1.97;;
71655;SDS011;59497;48.798;8.816;2024-03-23T02:56:06;3.07;;;2.10;;
71655;SDS011;59497;48.798;8.816;2024-03-23T02:58:31;2.25;;;1.92;;
71655;SDS011;59497;48.798;8.816;2024-03-23T03:00:56;3.40;;;2.07;;
71655;SDS011;59497;48.798;8.816;2024-03-23T03:03:22;3.13;;;1.80;;
71655;SDS011;59497;48.798;8.816;2024-03-23T03:05:47;3.33;;;2.00;;
71655;SDS011;59497;48.798;8.816;2024-03-23T03:08:12;3.90;;;1.80;;
71655;SDS011;59497;48.798;8.816;2024-03-23T03:10:37;3.87;;;1.80;;
71655;SDS011;59497;48.798;8.816;2024-03-23T03:13:02;3.30;;;2.57;;
71655;SDS011;59497;48.798;8.816;2024-03-23T03:15:28;3.83;;;2.60;;
71655;SDS011;59497;48.798;8.816;2024-03-23T03:17:53;3.33;;;2.40;;
71655;SDS011;59497;48.798;8.816;2024-03-23T03:20:18;2.97;;;1.93;;
71655;SDS011;59497;48.798;8.816;2024-03-23T03:22:43;5.10;;;2.10;;
71655;SDS011;59497;48.798;8.816;2024-03-23T03:25:09;3.67;;;2.07;;
71655;SDS011;59497;48.798;8.816;2024-03-23T03:27:34;2.70;;;2.10;;
71655;SDS011;59497;48.798;8.816;2024-03-23T03:29:59;3.57;;;2.10;;
71655;SDS011;59497;48.798;8.816;2024-03-23T03:32:27;4.53;;;1.95;;
71655;SDS011;59497;48.798;8.816;2024-03-23T03:34:52;2.93;;;2.10;;
71655;SDS011;59497;48.798;8.816;2024-03-23T03:37:17;2.73;;;2.17;;
71655;SDS011;59497;48.798;8.816;2024-03-23T03:39:42;2.50;;;2.17;;
71655;SDS011;59497;48.798;8.816;2024-03-23T03:42:07;3.53;;;2.03;;
71655;SDS011;59497;48.798;8.816;2024-03-23T03:44:33;2.73;;;1.93;;
71655;SDS011;59497;48.798;8.816;2024-03-23T03:46:58;3.23;;;1.70;;
71655;SDS011;59497;48.798;8.816;2024-03-23T03:49:23;3.03;;;2.07;;
71655;SDS011;59497;48.798;8.816;2024-03-23T03:51:48;4.40;;;2.20;;
71655;SDS011;59497;48.798;8.816;2024-03-23T03:54:13;2.77;;;1.60;;
71655;SDS011;59497;48.798;8.816;2024-03-23T03:56:39;3.50;;;2.37;;
71655;SDS011;59497;48.798;8.816;2024-03-23T03:59:04;3.77;;;2.03;;
71655;SDS011;59497;48.798;8.816;2024-03-23T04:01:29;2.28;;;1.83;;
71655;SDS011;59497;48.798;8.816;2024-03-23T04:03:55;2.60;;;2.37;;
71655;SDS011;59497;48.798;8.816;2024-03-23T04:06:20;15.43;;;5.43;;
71655;SDS011;59497;48.798;8.816;2024-03-23T04:08:45;20.93;;;6.80;;
71655;SDS011;59497;48.798;8.816;2024-03-23T04:11:10;11.33;;;4.80;;
71655;SDS011;59497;48.798;8.816;2024-03-23T04:13:35;6.77;;;4.23;;
71655;SDS011;59497;48.798;8.816;2024-03-23T04:16:01;7.20;;;4.53;;
71655;SDS011;59497;48.798;8.816;2024-03-23T04:18:26;9.30;;;6.40;;
71655;SDS011;59497;48.798;8.816;2024-03-23T04:20:51;11.37;;;6.00;;
71655;SDS011;59497;48.798;8.816;2024-03-23T04:23:17;11.67;;;7.23;;
71655;SDS011;59497;48.798;8.816;2024-03-23T04:25:42;11.10;;;7.30;;
71655;SDS011;59497;48.798;8.816;2024-03-23T04:28:07;10.57;;;6.27;;
71655;SDS011;59497;48.798;8.816;2024-03-23T04:30:32;10.07;;;7.30;;
71655;SDS011;59497;48.798;8.816;2024-03-23T04:32:58;10.97;;;7.70;;
71655;SDS011;59497;48.798;8.816;2024-03-23T04:35:23;12.73;;;8.00;;
71655;SDS011;59497;48.798;8.816;2024-03-23T04:37:50;16.83;;;9.63;;
71655;SDS011;59497;48.798;8.816;2024-03-23T04:40:17;18.23;;;10.63;;
71655;SDS011;59497;48.798;8.816;2024-03-23T04:42:42;20.63;;;10.07;;
71655;SDS011;59497;48.798;8.816;2024-03-23T04:45:07;20.87;;;11.33;;
71655;SDS011;59497;48.798;8.816;2024-03-23T04:47:33;19.40;;;11.53;;
71655;SDS011;59497;48.798;8.816;2024-03-23T04:50:00;22.25;;;11.23;;
71655;SDS011;59497;48.798;8.816;2024-03-23T04:52:26;19.63;;;11.23;;
71655;SDS011;59497;48.798;8.816;2024-03-23T04:54:51;17.63;;;9.30;;
71655;SDS011;59497;48.798;8.816;2024-03-23T04:57:17;13.93;;;7.87;;
71655;SDS011;59497;48.798;8.816;2024-03-23T04:59:42;14.27;;;7.93;;
71655;SDS011;59497;48.798;8.816;2024-03-23T05:02:07;10.67;;;7.03;;
71655;SDS011;59497;48.798;8.816;2024-03-23T05:04:32;15.20;;;8.07;;
71655;SDS011;59497;48.798;8.816;2024-03-23T05:06:58;19.17;;;9.10;;
71655;SDS011;59497;48.798;8.816;2024-03-23T05:09:23;18.03;;;10.10;;
71655;SDS011;59497;48.798;8.816;2024-03-23T05:11:48;17.90;;;9.37;;
71655;SDS011;59497;48.798;8.816;2024-03-23T05:14:13;18.13;;;8.80;;
71655;SDS011;59497;48.798;8.816;2024-03-23T05:16:39;16.58;;;7.70;;
71655;SDS011;59497;48.798;8.816;2024-03-23T05:19:04;17.23;;;8.73;;
71655;SDS011;59497;48.798;8.816;2024-03-23T05:21:29;14.80;;;8.17;;
71655;SDS011;59497;48.798;8.816;2024-03-23T05:23:54;14.43;;;7.97;;
71655;SDS011;59497;48.798;8.816;2024-03-23T05:26:21;17.40;;;8.83;;
71655;SDS011;59497;48.798;8.816;2024-03-23T05:28:46;13.30;;;7.88;;
71655;SDS011;59497;48.798;8.816;2024-03-23T05:31:11;15.10;;;7.70;;
71655;SDS011;59497;48.798;8.816;2024-03-23T05:33:37;15.67;;;7.67;;
71655;SDS011;59497;48.798;8.816;2024-03-23T05:36:03;12.45;;;7.15;;
71655;SDS011;59497;48.798;8.816;2024-03-23T05:38:29;14.05;;;7.40;;
71655;SDS011;59497;48.798;8.816;2024-03-23T05:40:54;13.20;;;6.97;;
71655;SDS011;59497;48.798;8.816;2024-03-23T05:43:20;7.63;;;4.40;;
71655;SDS011;59497;48.798;8.816;2024-03-23T05:45:45;9.03;;;5.23;;
71655;SDS011;59497;48.798;8.816;2024-03-23T05:48:10;7.10;;;3.63;;
71655;SDS011;59497;48.798;8.816;2024-03-23T05:50:35;6.03;;;3.40;;
71655;SDS011;59497;48.798;8.816;2024-03-23T05:53:01;5.63;;;3.03;;
71655;SDS011;59497;48.798;8.816;2024-03-23T05:55:26;7.13;;;2.60;;
71655;SDS011;59497;48.798;8.816;2024-03-23T05:57:52;4.78;;;2.25;;
71655;SDS011;59497;48.798;8.816;2024-03-23T06:00:17;4.07;;;1.83;;
71655;SDS011;59497;48.798;8.816;2024-03-23T06:02:43;3.30;;;1.73;;
71655;SDS011;59497;48.798;8.816;2024-03-23T06:05:11;2.83;;;1.45;;
71655;SDS011;59497;48.798;8.816;2024-03-23T06:07:37;3.40;;;1.33;;
71655;SDS011;59497;48.798;8.816;2024-03-23T06:10:02;2.17;;;1.10;;
71655;SDS011;59497;48.798;8.816;2024-03-23T06:12:27;1.10;;;0.60;;
71655;SDS011;59497;48.798;8.816;2024-03-23T06:14:53;1.20;;;0.37;;
71655;SDS011;59497;48.798;8.816;2024-03-23T06:17:18;1.40;;;0.70;;
71655;SDS011;59497;48.798;8.816;2024-03-23T06:19:43;0.80;;;0.30;;
71655;SDS011;59497;48.798;8.816;2024-03-23T06:22:08;0.93;;;0.53;;
71655;SDS011;59497;48.798;8.816;2024-03-23T06:24:34;0.73;;;0.57;;
71655;SDS011;59497;48.798;8.816;2024-03-23T06:26:59;0.50;;;0.40;;
71655;SDS011;59497;48.798;8.816;2024-03-23T06:29:24;0.50;;;0.40;;
71655;SDS011;59497;48.798;8.816;2024-03-23T06:31:55;2.05;;;0.40;;
71655;SDS011;59497;48.798;8.816;2024-03-23T06:34:21;0.50;;;0.30;;
71655;SDS011;59497;48.798;8.816;2024-03-23T06:36:49;0.50;;;0.30;;
71655;SDS011;59497;48.798;8.816;2024-03-23T06:39:14;0.40;;;0.23;;
71655;SDS011;59497;48.798;8.816;2024-03-23T06:41:41;1.13;;;0.40;;
71655;SDS011;59497;48.798;8.816;2024-03-23T06:44:06;0.43;;;0.22;;
71655;SDS011;59497;48.798;8.816;2024-03-23T06:46:31;0.47;;;0.30;;
71655;SDS011;59497;48.798;8.816;2024-03-23T06:48:57;0.70;;;0.47;;
71655;SDS011;59497;48.798;8.816;2024-03-23T06:51:22;0.80;;;0.30;;
71655;SDS011;59497;48.798;8.816;2024-03-23T06:53:47;0.10;;;0.10;;
71655;SDS011;59497;48.798;8.816;2024-03-23T06:56:14;0.50;;;0.50;;
71655;SDS011;59497;48.798;8.816;2024-03-23T06:58:39;0.40;;;0.00;;
71655;SDS011;59497;48.798;8.816;2024-03-23T07:01:04;1.13;;;0.70;;
71655;SDS011;59497;48.798;8.816;2024-03-23T07:03:30;0.47;;;0.30;;
71655;SDS011;59497;48.798;8.816;2024-03-23T07:05:57;1.77;;;0.80;;
71655;SDS011;59497;48.798;8.816;2024-03-23T07:08:22;0.68;;;0.40;;
71655;SDS011;59497;48.798;8.816;2024-03-23T07:10:48;0.20;;;0.20;;
71655;SDS011;59497;48.798;8.816;2024-03-23T07:13:13;3.30;;;2.00;;
71655;SDS011;59497;48.798;8.816;2024-03-23T07:15:38;0.40;;;0.37;;
71655;SDS011;59497;48.798;8.816;2024-03-23T07:18:03;1.63;;;0.70;;
71655;SDS011;59497;48.798;8.816;2024-03-23T07:20:29;0.50;;;0.50;;
71655;SDS011;59497;48.798;8.816;2024-03-23T07:22:56;0.50;;;0.32;;
71655;SDS011;59497;48.798;8.816;2024-03-23T07:25:22;0.82;;;0.40;;
71655;SDS011;59497;48.798;8.816;2024-03-23T07:27:48;0.40;;;0.40;;
71655;SDS011;59497;48.798;8.816;2024-03-23T07:30:13;2.60;;;2.13;;
71655;SDS011;59497;48.798;8.816;2024-03-23T07:32:38;1.37;;;0.97;;
71655;SDS011;59497;48.798;8.816;2024-03-23T07:35:04;1.13;;;0.50;;
71655;SDS011;59497;48.798;8.816;2024-03-23T07:37:29;1.00;;;0.80;;
71655;SDS011;59497;48.798;8.816;2024-03-23T07:39:54;0.40;;;0.20;;
71655;SDS011;59497;48.798;8.816;2024-03-23T07:42:20;0.40;;;0.40;;
71655;SDS011;59497;48.798;8.816;2024-03-23T07:44:45;0.70;;;0.63;;
71655;SDS011;59497;48.798;8.816;2024-03-23T07:47:11;0.45;;;0.40;;
71655;SDS011;59497;48.798;8.816;2024-03-23T07:49:37;0.67;;;0.37;;
71655;SDS011;59497;48.798;8.816;2024-03-23T07:52:02;1.17;;;0.47;;
71655;SDS011;59497;48.798;8.816;2024-03-23T07:54:27;1.03;;;0.77;;
71655;SDS011;59497;48.798;8.816;2024-03-23T07:56:53;1.13;;;0.43;;
71655;SDS011;59497;48.798;8.816;2024-03-23T07:59:19;1.27;;;0.30;;
71655;SDS011;59497;48.798;8.816;2024-03-23T08:01:44;0.30;;;0.23;;
71655;SDS011;59497;48.798;8.816;2024-03-23T08:04:09;0.97;;;0.43;;
71655;SDS011;59497;48.798;8.816;2024-03-23T08:06:35;2.90;;;0.73;;
71655;SDS011;59497;48.798;8.816;2024-03-23T08:09:00;1.27;;;1.07;;
71655;SDS011;59497;48.798;8.816;2024-03-23T08:11:29;1.87;;;0.60;;
71655;SDS011;59497;48.798;8.816;2024-03-23T08:13:54;2.45;;;0.82;;
71655;SDS011;59497;48.798;8.816;2024-03-23T08:16:20;1.45;;;0.63;;
71655;SDS011;59497;48.798;8.816;2024-03-23T08:18:45;1.00;;;0.50;;
71655;SDS011;59497;48.798;8.816;2024-03-23T08:21:10;1.57;;;1.10;;
71655;SDS011;59497;48.798;8.816;2024-03-23T08:23:36;0.93;;;0.80;;
71655;SDS011;59497;48.798;8.816;2024-03-23T08:26:06;2.25;;;1.00;;
71655;SDS011;59497;48.798;8.816;2024-03-23T08:28:31;1.75;;;0.75;;
71655;SDS011;59497;48.798;8.816;2024-03-23T08:31:01;1.03;;;0.57;;
71655;SDS011;59497;48.798;8.816;2024-03-23T08:33:27;2.97;;;0.80;;
71655;SDS011;59497;48.798;8.816;2024-03-23T08:36:00;2.90;;;1.03;;
71655;SDS011;59497;48.798;8.816;2024-03-23T08:38:25;3.17;;;1.00;;
71655;SDS011;59497;48.798;8.816;2024-03-23T08:43:25;1.23;;;0.70;;
71655;SDS011;59497;48.798;8.816;2024-03-23T08:45:51;5.30;;;1.33;;
71655;SDS011;59497;48.798;8.816;2024-03-23T08:48:17;3.72;;;1.05;;
71655;SDS011;59497;48.798;8.816;2024-03-23T08:50:42;3.53;;;0.75;;
71655;SDS011;59497;48.798;8.816;2024-03-23T08:53:08;3.40;;;1.27;;
71655;SDS011;59497;48.798;8.816;2024-03-23T08:55:33;2.37;;;1.37;;
71655;SDS011;59497;48.798;8.816;2024-03-23T08:57:58;4.73;;;1.20;;
71655;SDS011;59497;48.798;8.816;2024-03-23T09:00:23;3.40;;;1.83;;
71655;SDS011;59497;48.798;8.816;2024-03-23T09:02:48;6.30;;;2.10;;
71655;SDS011;59497;48.798;8.816;2024-03-23T09:05:14;3.87;;;2.00;;
71655;SDS011;59497;48.798;8.816;2024-03-23T09:07:39;3.77;;;1.80;;
71655;SDS011;59497;48.798;8.816;2024-03-23T09:10:04;6.20;;;2.07;;
71655;SDS011;59497;48.798;8.816;2024-03-23T09:12:29;4.80;;;2.03;;
71655;SDS011;59497;48.798;8.816;2024-03-23T09:14:55;8.60;;;2.70;;
71655;SDS011;59497;48.798;8.816;2024-03-23T09:17:20;5.70;;;2.60;;
71655;SDS011;59497;48.798;8.816;2024-03-23T09:19:45;8.00;;;3.03;;
71655;SDS011;59497;48.798;8.816;2024-03-23T09:22:10;5.37;;;2.03;;
71655;SDS011;59497;48.798;8.816;2024-03-23T09:24:36;8.13;;;2.17;;
71655;SDS011;59497;48.798;8.816;2024-03-23T09:27:02;4.72;;;2.28;;
71655;SDS011;59497;48.798;8.816;2024-03-23T09:29:28;5.07;;;2.00;;
71655;SDS011;59497;48.798;8.816;2024-03-23T09:31:54;7.47;;;2.23;;
71655;SDS011;59497;48.798;8.816;2024-03-23T09:34:19;5.43;;;2.67;;
71655;SDS011;59497;48.798;8.816;2024-03-23T09:36:44;5.33;;;2.70;;
71655;SDS011;59497;48.798;8.816;2024-03-23T09:39:10;6.20;;;2.78;;
71655;SDS011;59497;48.798;8.816;2024-03-23T09:41:35;4.73;;;2.33;;
71655;SDS011;59497;48.798;8.816;2024-03-23T09:44:01;5.37;;;2.67;;
71655;SDS011;59497;48.798;8.816;2024-03-23T09:46:26;5.97;;;2.30;;
71655;SDS011;59497;48.798;8.816;2024-03-23T09:48:53;5.75;;;2.03;;
71655;SDS011;59497;48.798;8.816;2024-03-23T09:51:18;5.13;;;2.23;;
71655;SDS011;59497;48.798;8.816;2024-03-23T09:53:44;4.77;;;2.10;;
71655;SDS011;59497;48.798;8.816;2024-03-23T09:56:09;7.13;;;3.03;;
71655;SDS011;59497;48.798;8.816;2024-03-23T09:58:34;5.57;;;2.50;;
71655;SDS011;59497;48.798;8.816;2024-03-23T10:00:59;5.93;;;2.47;;
71655;SDS011;59497;48.798;8.816;2024-03-23T10:03:24;8.27;;;2.90;;
71655;SDS011;59497;48.798;8.816;2024-03-23T10:06:00;5.23;;;1.87;;
71655;SDS011;59497;48.798;8.816;2024-03-23T10:08:25;6.30;;;1.95;;
71655;SDS011;59497;48.798;8.816;2024-03-23T10:10:51;9.33;;;2.67;;
71655;SDS011;59497;48.798;8.816;2024-03-23T10:13:26;3.20;;;2.03;;
71655;SDS011;59497;48.798;8.816;2024-03-23T10:15:55;4.73;;;2.00;;
71655;SDS011;59497;48.798;8.816;2024-03-23T10:18:21;6.25;;;1.88;;
71655;SDS011;59497;48.798;8.816;2024-03-23T10:20:51;5.07;;;2.17;;
71655;SDS011;59497;48.798;8.816;2024-03-23T10:23:17;5.70;;;2.47;;
71655;SDS011;59497;48.798;8.816;2024-03-23T10:25:42;6.07;;;2.67;;
71655;SDS011;59497;48.798;8.816;2024-03-23T10:28:07;5.67;;;1.80;;
71655;SDS011;59497;48.798;8.816;2024-03-23T10:30:33;5.67;;;2.10;;
71655;SDS011;59497;48.798;8.816;2024-03-23T10:33:07;6.27;;;1.67;;
71655;SDS011;59497;48.798;8.816;2024-03-23T10:35:33;5.00;;;1.98;;
71655;SDS011;59497;48.798;8.816;2024-03-23T10:37:58;7.50;;;1.93;;
71655;SDS011;59497;48.798;8.816;2024-03-23T10:40:23;3.90;;;1.47;;
71655;SDS011;59497;48.798;8.816;2024-03-23T10:42:49;3.65;;;1.60;;
71655;SDS011;59497;48.798;8.816;2024-03-23T10:45:15;4.40;;;1.30;;
71655;SDS011;59497;48.798;8.816;2024-03-23T10:47:40;1.70;;;0.63;;
71655;SDS011;59497;48.798;8.816;2024-03-23T10:50:07;3.83;;;0.98;;
71655;SDS011;59497;48.798;8.816;2024-03-23T10:52:33;4.37;;;1.07;;
71655;SDS011;59497;48.798;8.816;2024-03-23T10:54:58;3.80;;;0.97;;
71655;SDS011;59497;48.798;8.816;2024-03-23T10:57:27;3.33;;;1.42;;
71655;SDS011;59497;48.798;8.816;2024-03-23T10:59:54;5.03;;;1.52;;
71655;SDS011;59497;48.798;8.816;2024-03-23T11:02:21;2.57;;;1.20;;
71655;SDS011;59497;48.798;8.816;2024-03-23T11:04:46;3.38;;;1.13;;
71655;SDS011;59497;48.798;8.816;2024-03-23T11:09:48;4.60;;;1.27;;
71655;SDS011;59497;48.798;8.816;2024-03-23T11:14:48;2.47;;;1.13;;
71655;SDS011;59497;48.798;8.816;2024-03-23T11:17:17;2.15;;;0.73;;
71655;SDS011;59497;48.798;8.816;2024-03-23T11:19:43;3.53;;;1.10;;
71655;SDS011;59497;48.798;8.816;2024-03-23T11:22:08;1.30;;;0.53;;
71655;SDS011;59497;48.798;8.816;2024-03-23T11:24:33;2.83;;;0.60;;
71655;SDS011;59497;48.798;8.816;2024-03-23T11:26:59;1.43;;;0.50;;
71655;SDS011;59497;48.798;8.816;2024-03-23T11:29:26;1.87;;;0.70;;
71655;SDS011;59497;48.798;8.816;2024-03-23T11:31:52;3.50;;;0.68;;
71655;SDS011;59497;48.798;8.816;2024-03-23T11:34:17;2.03;;;0.57;;
71655;SDS011;59497;48.798;8.816;2024-03-23T11:36:43;4.10;;;0.47;;
71655;SDS011;59497;48.798;8.816;2024-03-23T11:39:15;3.25;;;0.65;;
71655;SDS011;59497;48.798;8.816;2024-03-23T11:41:50;2.17;;;0.52;;
71655;SDS011;59497;48.798;8.816;2024-03-23T11:44:18;3.33;;;1.03;;
71655;SDS011;59497;48.798;8.816;2024-03-23T11:46:44;6.28;;;0.80;;
71655;SDS011;59497;48.798;8.816;2024-03-23T11:49:26;4.60;;;0.63;;
71655;SDS011;59497;48.798;8.816;2024-03-23T11:51:52;5.57;;;0.80;;
71655;SDS011;59497;48.798;8.816;2024-03-23T11:54:22;2.95;;;0.80;;
71655;SDS011;59497;48.798;8.816;2024-03-23T11:56:57;3.60;;;0.60;;
71655;SDS011;59497;48.798;8.816;2024-03-23T11:59:32;3.08;;;1.10;;
71655;SDS011;59497;48.798;8.816;2024-03-23T12:01:57;5.00;;;0.83;;
71655;SDS011;59497;48.798;8.816;2024-03-23T12:04:30;2.80;;;1.58;;
71655;SDS011;59497;48.798;8.816;2024-03-23T12:07:10;5.57;;;1.38;;
71655;SDS011;59497;48.798;8.816;2024-03-23T12:09:35;3.50;;;1.43;;
71655;SDS011;59497;48.798;8.816;2024-03-23T12:12:10;8.03;;;1.67;;
71655;SDS011;59497;48.798;8.816;2024-03-23T12:14:38;2.97;;;1.00;;
71655;SDS011;59497;48.798;8.816;2024-03-23T12:17:13;7.37;;;1.67;;
71655;SDS011;59497;48.798;8.816;2024-03-23T12:19:39;3.65;;;1.67;;
71655;SDS011;59497;48.798;8.816;2024-03-23T12:22:05;7.78;;;1.33;;
71655;SDS011;59497;48.798;8.816;2024-03-23T12:24:31;6.13;;;1.57;;
71655;SDS011;59497;48.798;8.816;2024-03-23T12:26:59;5.82;;;2.13;;
71655;SDS011;59497;48.798;8.816;2024-03-23T12:29:25;4.00;;;1.83;;
71655;SDS011;59497;48.798;8.816;2024-03-23T12:31:51;6.10;;;2.10;;
71655;SDS011;59497;48.798;8.816;2024-03-23T12:34:16;2.53;;;1.30;;
71655;SDS011;59497;48.798;8.816;2024-03-23T12:36:41;9.63;;;2.37;;
71655;SDS011;59497;48.798;8.816;2024-03-23T12:39:06;9.57;;;2.20;;
71655;SDS011;59497;48.798;8.816;2024-03-23T12:41:32;5.78;;;1.75;;
71655;SDS011;59497;48.798;8.816;2024-03-23T12:43:57;8.27;;;2.57;;
71655;SDS011;59497;48.798;8.816;2024-03-23T12:46:22;9.93;;;2.30;;
71655;SDS011;59497;48.798;8.816;2024-03-23T12:48:48;6.47;;;1.90;;
71655;SDS011;59497;48.798;8.816;2024-03-23T12:51:13;6.90;;;2.00;;
71655;SDS011;59497;48.798;8.816;2024-03-23T12:53:38;6.03;;;1.53;;
71655;SDS011;59497;48.798;8.816;2024-03-23T12:56:03;9.57;;;3.40;;
71655;SDS011;59497;48.798;8.816;2024-03-23T12:58:29;7.17;;;2.07;;
71655;SDS011;59497;48.798;8.816;2024-03-23T13:00:54;4.37;;;1.57;;
71655;SDS011;59497;48.798;8.816;2024-03-23T13:03:19;5.43;;;1.63;;
71655;SDS011;59497;48.798;8.816;2024-03-23T13:05:46;3.23;;;1.50;;
71655;SDS011;59497;48.798;8.816;2024-03-23T13:08:16;3.85;;;1.20;;
71655;SDS011;59497;48.798;8.816;2024-03-23T13:10:41;4.83;;;1.63;;
71655;SDS011;59497;48.798;8.816;2024-03-23T13:13:07;2.40;;;1.52;;
71655;SDS011;59497;48.798;8.816;2024-03-23T13:15:33;4.77;;;1.13;;
71655;SDS011;59497;48.798;8.816;2024-03-23T13:17:58;3.80;;;0.90;;
71655;SDS011;59497;48.798;8.816;2024-03-23T13:20:23;4.25;;;1.45;;
71655;SDS011;59497;48.798;8.816;2024-03-23T13:22:49;4.00;;;1.70;;
71655;SDS011;59497;48.798;8.816;2024-03-23T13:25:16;2.85;;;1.27;;
71655;SDS011;59497;48.798;8.816;2024-03-23T13:27:43;5.77;;;1.97;;
71655;SDS011;59497;48.798;8.816;2024-03-23T13:30:09;4.77;;;1.27;;
71655;SDS011;59497;48.798;8.816;2024-03-23T13:32:34;5.87;;;1.10;;
71655;SDS011;59497;48.798;8.816;2024-03-23T13:35:00;2.47;;;1.33;;
71655;SDS011;59497;48.798;8.816;2024-03-23T13:37:25;6.37;;;1.00;;
71655;SDS011;59497;48.798;8.816;2024-03-23T13:39:50;3.37;;;1.10;;
71655;SDS011;59497;48.798;8.816;2024-03-23T13:42:16;3.90;;;0.97;;
71655;SDS011;59497;48.798;8.816;2024-03-23T13:44:41;4.53;;;1.40;;
71655;SDS011;59497;48.798;8.816;2024-03-23T13:47:06;5.03;;;1.27;;
71655;SDS011;59497;48.798;8.816;2024-03-23T13:49:32;2.77;;;1.23;;
71655;SDS011;59497;48.798;8.816;2024-03-23T13:51:57;3.30;;;1.27;;
71655;SDS011;59497;48.798;8.816;2024-03-23T13:54:23;2.40;;;1.10;;
71655;SDS011;59497;48.798;8.816;2024-03-23T13:56:49;4.18;;;0.80;;
71655;SDS011;59497;48.798;8.816;2024-03-23T13:59:14;6.33;;;1.27;;
71655;SDS011;59497;48.798;8.816;2024-03-23T14:01:40;4.20;;;1.10;;
71655;SDS011;59497;48.798;8.816;2024-03-23T14:04:05;2.45;;;0.70;;
71655;SDS011;59497;48.798;8.816;2024-03-23T14:06:31;3.37;;;0.50;;
71655;SDS011;59497;48.798;8.816;2024-03-23T14:08:56;2.77;;;1.20;;
71655;SDS011;59497;48.798;8.816;2024-03-23T14:11:21;3.77;;;0.53;;
71655;SDS011;59497;48.798;8.816;2024-03-23T14:13:47;1.67;;;0.70;;
71655;SDS011;59497;48.798;8.816;2024-03-23T14:16:12;3.43;;;1.03;;
71655;SDS011;59497;48.798;8.816;2024-03-23T14:18:37;2.53;;;1.00;;
71655;SDS011;59497;48.798;8.816;2024-03-23T14:21:02;3.37;;;0.83;;
71655;SDS011;59497;48.798;8.816;2024-03-23T14:23:28;3.47;;;0.60;;
71655;SDS011;59497;48.798;8.816;2024-03-23T14:25:54;2.87;;;0.83;;
71655;SDS011;59497;48.798;8.816;2024-03-23T14:28:20;3.55;;;0.60;;
71655;SDS011;59497;48.798;8.816;2024-03-23T14:30:45;4.43;;;0.73;;
71655;SDS011;59497;48.798;8.816;2024-03-23T14:33:10;1.10;;;0.47;;
71655;SDS011;59497;48.798;8.816;2024-03-23T14:35:35;1.77;;;0.50;;
71655;SDS011;59497;48.798;8.816;2024-03-23T14:38:01;3.63;;;0.80;;
71655;SDS011;59497;48.798;8.816;2024-03-23T14:40:27;3.00;;;0.70;;
71655;SDS011;59497;48.798;8.816;2024-03-23T14:42:52;4.03;;;0.70;;
71655;SDS011;59497;48.798;8.816;2024-03-23T14:45:17;2.23;;;0.63;;
71655;SDS011;59497;48.798;8.816;2024-03-23T14:47:43;1.90;;;0.47;;
71655;SDS011;59497;48.798;8.816;2024-03-23T14:50:08;3.03;;;0.43;;
71655;SDS011;59497;48.798;8.816;2024-03-23T14:52:36;1.23;;;0.35;;
71655;SDS011;59497;48.798;8.816;2024-03-23T14:55:02;0.70;;;0.37;;
71655;SDS011;59497;48.798;8.816;2024-03-23T14:57:27;0.32;;;0.13;;
71655;SDS011;59497;48.798;8.816;2024-03-23T14:59:54;1.42;;;0.13;;
71655;SDS011;59497;48.798;8.816;2024-03-23T15:02:19;1.80;;;0.10;;
71655;SDS011;59497;48.798;8.816;2024-03-23T15:04:45;1.70;;;0.30;;
71655;SDS011;59497;48.798;8.816;2024-03-23T15:07:10;0.80;;;0.40;;
71655;SDS011;59497;48.798;8.816;2024-03-23T15:09:35;1.27;;;0.20;;
71655;SDS011;59497;48.798;8.816;2024-03-23T15:12:00;3.83;;;0.70;;
71655;SDS011;59497;48.798;8.816;2024-03-23T15:14:25;1.07;;;0.43;;
71655;SDS011;59497;48.798;8.816;2024-03-23T15:16:51;1.33;;;0.67;;
71655;SDS011;59497;48.798;8.816;2024-03-23T15:19:17;3.80;;;0.68;;
71655;SDS011;59497;48.798;8.816;2024-03-23T15:21:43;1.10;;;0.23;;
71655;SDS011;59497;48.798;8.816;2024-03-23T15:24:08;2.10;;;0.30;;
71655;SDS011;59497;48.798;8.816;2024-03-23T15:26:35;1.60;;;0.80;;
71655;SDS011;59497;48.798;8.816;2024-03-23T15:29:01;1.90;;;0.50;;
71655;SDS011;59497;48.798;8.816;2024-03-23T15:31:26;5.23;;;0.60;;
71655;SDS011;59497;48.798;8.816;2024-03-23T15:33:51;0.67;;;0.30;;
71655;SDS011;59497;48.798;8.816;2024-03-23T15:36:17;1.30;;;0.40;;
71655;SDS011;59497;48.798;8.816;2024-03-23T15:38:42;1.65;;;0.40;;